Greystone Park, New Jersey
Current Conditions -  °F | °C
As of 4:45 PM on Monday 20 Oct 2014 (Local Time) from KMMU Reporting Station
Broken Clouds Broken Clouds  
Wind Chill: 61°   Ceiling: 13000
Heat Index: 61°   Visibility: 10mi
Dew Point: 39°   Wind: 12mph
Humidity: 45%   Direction: 220°SW
Pressure: 29.97"   Gusts: NA
Location:  40.8475°N, 74.4826°W
Report Text: KMMU 202045Z 22010KT 10SM BKN130 16/04 A2997
Loading
Personal Weather Stations






























Interactive Weather Map
Tropical Storm Tracking
New forecast layout! Learn more

10-Day Weather Forecast

Advertisements
Track Severe Weather on mobile